createdAt,value
2018-12-16T00:00:02.604Z,407.87
2018-12-16T00:01:02.594Z,399.95
2018-12-16T00:02:02.598Z,402.79
2018-12-16T00:03:02.571Z,404.28
2018-12-16T00:04:02.549Z,410.36
2018-12-16T00:05:02.542Z,408.34
2018-12-16T00:06:02.749Z,404.19
2018-12-16T00:07:02.531Z,404.13
2018-12-16T00:08:02.512Z,404.77
2018-12-16T00:09:02.501Z,403.34
2018-12-16T00:10:02.485Z,409.43
2018-12-16T00:11:02.478Z,403.60
2018-12-16T00:12:02.501Z,411.23
2018-12-16T00:13:02.474Z,403.97
2018-12-16T00:14:02.458Z,411.33
2018-12-16T00:15:02.444Z,407.89
2018-12-16T00:16:02.411Z,407.90
2018-12-16T00:17:02.406Z,405.32
2018-12-16T00:18:02.433Z,401.13
2018-12-16T00:19:02.393Z,408.46
2018-12-16T00:20:02.384Z,401.56
2018-12-16T00:21:02.355Z,401.79
2018-12-16T00:22:02.368Z,405.73
2018-12-16T00:23:02.369Z,403.68
2018-12-16T00:24:02.352Z,404.17
2018-12-16T00:25:02.342Z,406.65
2018-12-16T00:26:02.303Z,407.96
2018-12-16T00:27:02.294Z,403.23
2018-12-16T00:28:02.324Z,402.35
2018-12-16T00:29:02.278Z,405.81
2018-12-16T00:30:02.274Z,405.30
2018-12-16T00:31:02.259Z,408.33
2018-12-16T00:32:02.262Z,407.92
2018-12-16T00:33:02.233Z,406.35
2018-12-16T00:34:02.273Z,408.42
2018-12-16T00:35:02.210Z,404.06
2018-12-16T00:36:02.217Z,411.32
2018-12-16T00:37:02.192Z,408.06
2018-12-16T00:38:02.209Z,402.68
2018-12-16T00:39:02.200Z,406.20
2018-12-16T00:40:02.263Z,406.60
2018-12-16T00:41:02.147Z,406.67
2018-12-16T00:42:02.163Z,403.96
2018-12-16T00:43:02.150Z,400.71
2018-12-16T00:44:02.128Z,400.05
2018-12-16T00:45:02.253Z,402.28
2018-12-16T00:46:02.095Z,409.01
2018-12-16T00:47:02.103Z,401.98
2018-12-16T00:48:02.089Z,402.88
2018-12-16T00:49:02.083Z,406.28
2018-12-16T00:50:02.074Z,409.50
2018-12-16T00:51:02.043Z,406.24
2018-12-16T00:52:02.030Z,402.57
2018-12-16T00:53:02.015Z,408.93
2018-12-16T00:54:02.023Z,403.83
2018-12-16T00:55:02.028Z,412.77
2018-12-16T00:56:02.015Z,404.30
2018-12-16T00:57:01.974Z,410.48
2018-12-16T00:58:01.978Z,404.43
2018-12-16T00:59:01.954Z,403.50
2018-12-16T01:00:01.968Z,408.93
2018-12-16T01:01:01.937Z,407.81
2018-12-16T01:02:01.914Z,404.82
2018-12-16T01:03:01.906Z,401.94
2018-12-16T01:04:01.896Z,410.30
2018-12-16T01:05:01.926Z,404.11
2018-12-16T01:06:01.931Z,403.35
2018-12-16T01:07:01.881Z,404.42
2018-12-16T01:08:01.852Z,408.70
2018-12-16T01:09:01.848Z,406.95
2018-12-16T01:10:01.843Z,409.75
2018-12-16T01:11:01.852Z,403.31
2018-12-16T01:12:01.817Z,407.38
2018-12-16T01:13:01.813Z,406.96
2018-12-16T01:14:01.784Z,405.32
2018-12-16T01:15:01.772Z,403.08
2018-12-16T01:16:01.796Z,404.67
2018-12-16T01:17:01.765Z,411.63
2018-12-16T01:18:01.751Z,402.99
2018-12-16T01:19:01.748Z,410.08
2018-12-16T01:20:01.735Z,409.88
2018-12-16T01:21:01.777Z,400.23
2018-12-16T01:22:01.714Z,405.20
2018-12-16T01:23:01.702Z,407.01
2018-12-16T01:24:01.694Z,408.50
2018-12-16T01:25:01.679Z,405.52
2018-12-16T01:26:01.662Z,408.99
2018-12-16T01:27:01.663Z,409.37
2018-12-16T01:28:01.638Z,405.90
2018-12-16T01:29:01.645Z,404.64
2018-12-16T01:30:01.645Z,405.10
2018-12-16T01:31:01.621Z,414.79
2018-12-16T01:32:01.639Z,413.09
2018-12-16T01:33:01.590Z,408.32
2018-12-16T01:34:01.578Z,408.08
2018-12-16T01:35:01.587Z,404.04
2018-12-16T01:36:01.562Z,407.79
2018-12-16T01:37:01.565Z,410.37
2018-12-16T01:38:01.578Z,405.90
2018-12-16T01:39:02.230Z,407.36
2018-12-16T01:40:01.509Z,409.10
2018-12-16T01:41:01.491Z,405.69
2018-12-16T01:42:01.570Z,406.05
2018-12-16T01:43:01.478Z,408.55
2018-12-16T01:44:01.475Z,409.06
2018-12-16T01:45:01.473Z,408.54
2018-12-16T01:46:01.461Z,414.38
2018-12-16T01:47:01.465Z,406.45
2018-12-16T01:48:01.438Z,413.48
2018-12-16T01:49:01.408Z,406.42
2018-12-16T01:50:01.412Z,407.39
2018-12-16T01:51:01.389Z,407.27
2018-12-16T01:52:01.427Z,412.56
2018-12-16T01:53:01.412Z,404.25
2018-12-16T01:54:01.367Z,412.02
2018-12-16T01:55:01.342Z,409.63
2018-12-16T01:56:01.341Z,410.05
2018-12-16T01:57:01.348Z,409.86
2018-12-16T01:58:01.331Z,405.31
2018-12-16T01:59:01.308Z,413.01
2018-12-16T02:00:01.302Z,414.39
2018-12-16T02:01:01.288Z,412.27
2018-12-16T02:02:01.287Z,411.55
2018-12-16T02:03:01.305Z,409.95
2018-12-16T02:04:01.279Z,405.25
2018-12-16T02:05:01.247Z,407.94
2018-12-16T02:06:01.233Z,412.42
2018-12-16T02:07:01.225Z,410.29
2018-12-16T02:08:01.234Z,408.74
2018-12-16T02:09:01.193Z,410.98
2018-12-16T02:10:01.207Z,410.31
2018-12-16T02:11:01.188Z,413.62
2018-12-16T02:12:01.170Z,414.48
2018-12-16T02:13:01.152Z,413.95
2018-12-16T02:14:01.173Z,412.10
2018-12-16T02:15:01.135Z,411.85
2018-12-16T02:16:01.140Z,410.74
2018-12-16T02:17:01.128Z,411.74
2018-12-16T02:18:01.093Z,413.51
2018-12-16T02:19:01.090Z,410.39
2018-12-16T02:20:01.099Z,417.07
2018-12-16T02:21:01.070Z,414.16
2018-12-16T02:22:01.085Z,410.97
2018-12-16T02:23:01.059Z,407.85
2018-12-16T02:24:01.040Z,407.51
2018-12-16T02:25:01.065Z,410.95
2018-12-16T02:26:01.033Z,409.33
2018-12-16T02:27:01.013Z,411.91
2018-12-16T02:28:01.029Z,413.13
2018-12-16T02:29:00.996Z,412.14
2018-12-16T02:30:00.998Z,415.72
2018-12-16T02:31:00.959Z,408.65
2018-12-16T02:32:01.016Z,412.46
2018-12-16T02:33:00.954Z,411.52
2018-12-16T02:34:00.953Z,411.63
2018-12-16T02:35:00.977Z,413.65
2018-12-16T02:36:00.926Z,410.74
2018-12-16T02:37:00.922Z,413.54
2018-12-16T02:38:00.883Z,417.81
2018-12-16T02:39:00.946Z,416.47
2018-12-16T02:40:00.866Z,410.42
2018-12-16T02:41:00.881Z,411.69
2018-12-16T02:42:00.852Z,413.15
2018-12-16T02:43:00.851Z,412.91
2018-12-16T02:44:00.817Z,407.98
2018-12-16T02:45:00.824Z,409.90
2018-12-16T02:46:00.841Z,412.28
2018-12-16T02:47:00.812Z,414.78
2018-12-16T02:48:00.784Z,414.74
2018-12-16T02:49:00.793Z,413.97
2018-12-16T02:50:00.764Z,417.85
2018-12-16T02:51:00.769Z,416.74
2018-12-16T02:52:00.765Z,418.43
2018-12-16T02:53:04.586Z,416.53
2018-12-16T02:54:00.724Z,415.42
2018-12-16T02:55:00.716Z,415.40
2018-12-16T02:56:00.705Z,407.97
2018-12-16T02:57:00.739Z,417.04
2018-12-16T02:58:00.669Z,412.20
2018-12-16T02:59:00.652Z,415.66
2018-12-16T03:00:00.684Z,414.46
2018-12-16T03:01:00.671Z,417.40
2018-12-16T03:02:00.629Z,414.90
2018-12-16T03:03:00.646Z,411.69
2018-12-16T03:04:00.622Z,414.86
2018-12-16T03:05:00.601Z,411.17
2018-12-16T03:06:00.600Z,419.92
2018-12-16T03:07:00.598Z,419.06
2018-12-16T03:08:00.578Z,419.34
2018-12-16T03:09:00.585Z,420.66
2018-12-16T03:10:00.548Z,419.02
2018-12-16T03:11:00.529Z,413.54
2018-12-16T03:12:00.520Z,416.32
2018-12-16T03:13:00.508Z,422.66
2018-12-16T03:14:00.523Z,417.01
2018-12-16T03:15:00.543Z,421.25
2018-12-16T03:16:00.486Z,420.07
2018-12-16T03:17:00.473Z,414.60
2018-12-16T03:18:00.462Z,417.94
2018-12-16T03:19:00.494Z,420.18
2018-12-16T03:20:00.456Z,417.66
2018-12-16T03:21:00.460Z,423.07
2018-12-16T03:22:00.433Z,420.42
2018-12-16T03:23:00.412Z,422.34
2018-12-16T03:24:00.411Z,420.14
2018-12-16T03:25:00.427Z,418.18
2018-12-16T03:26:00.410Z,417.95
2018-12-16T03:27:00.368Z,417.78
2018-12-16T03:28:00.370Z,418.76
2018-12-16T03:29:00.356Z,420.20
2018-12-16T03:30:00.321Z,416.47
2018-12-16T03:31:00.336Z,419.75
2018-12-16T03:32:00.340Z,418.14
2018-12-16T03:33:00.307Z,417.71
2018-12-16T03:34:00.300Z,417.63
2018-12-16T03:35:00.304Z,421.32
2018-12-16T03:36:00.293Z,413.22
2018-12-16T03:37:00.257Z,417.41
2018-12-16T03:38:00.266Z,420.82
2018-12-16T03:39:00.239Z,423.81
2018-12-16T03:40:00.238Z,414.52
2018-12-16T03:41:00.218Z,419.71
2018-12-16T03:42:00.224Z,419.45
2018-12-16T03:43:00.183Z,419.13
2018-12-16T03:44:00.212Z,420.33
2018-12-16T03:45:00.187Z,419.75
2018-12-16T03:46:00.177Z,417.51
2018-12-16T03:47:00.165Z,416.78
2018-12-16T03:48:00.155Z,422.94
2018-12-16T03:49:00.122Z,416.17
2018-12-16T03:50:00.142Z,414.86
2018-12-16T03:51:00.118Z,424.67
2018-12-16T03:52:00.100Z,416.91
2018-12-16T03:53:00.127Z,419.79
2018-12-16T03:54:00.069Z,422.24
2018-12-16T03:55:00.078Z,419.82
2018-12-16T03:56:00.043Z,417.77
2018-12-16T03:57:00.051Z,418.07
2018-12-16T03:58:00.031Z,422.99
2018-12-16T03:59:00.059Z,417.30
2018-12-16T04:00:00.010Z,417.55
2018-12-16T04:01:00.001Z,414.19
2018-12-16T04:01:59.984Z,419.28
2018-12-16T04:02:59.988Z,417.86
2018-12-16T04:03:59.994Z,421.60
2018-12-16T04:04:59.961Z,413.80
2018-12-16T04:05:59.969Z,418.89
2018-12-16T04:06:59.952Z,419.67
2018-12-16T04:07:59.931Z,415.42
2018-12-16T04:08:59.929Z,416.29
2018-12-16T04:09:59.906Z,420.28
2018-12-16T04:10:59.894Z,411.74
2018-12-16T04:11:59.882Z,414.32
2018-12-16T04:12:59.916Z,422.17
2018-12-16T04:13:59.858Z,420.83
2018-12-16T04:14:59.860Z,421.20
2018-12-16T04:15:59.835Z,415.72
2018-12-16T04:16:59.818Z,419.67
2018-12-16T04:17:59.822Z,416.06
2018-12-16T04:18:59.833Z,416.77
2018-12-16T04:19:59.789Z,419.90
2018-12-16T04:20:59.777Z,417.42
2018-12-16T04:21:59.780Z,420.62
2018-12-16T04:22:59.777Z,414.13
2018-12-16T04:23:59.752Z,419.15
2018-12-16T04:24:59.768Z,418.95
2018-12-16T04:25:59.730Z,414.62
2018-12-16T04:26:59.713Z,416.17
2018-12-16T04:27:59.713Z,417.33
2018-12-16T04:28:59.705Z,417.59
2018-12-16T04:29:59.717Z,414.99
2018-12-16T04:30:59.689Z,416.26
2018-12-16T04:31:59.675Z,416.28
2018-12-16T04:32:59.656Z,415.36
2018-12-16T04:33:59.642Z,418.50
2018-12-16T04:34:59.630Z,418.72
2018-12-16T04:35:59.663Z,420.89
2018-12-16T04:36:59.633Z,418.42
2018-12-16T04:37:59.606Z,415.47
2018-12-16T04:38:59.788Z,415.01
2018-12-16T04:39:59.572Z,411.17
2018-12-16T04:40:59.567Z,414.10
2018-12-16T04:41:59.564Z,417.88
2018-12-16T04:42:59.550Z,419.90
2018-12-16T04:43:59.989Z,411.41
2018-12-16T04:44:59.536Z,420.60
2018-12-16T04:45:59.923Z,414.77
2018-12-16T04:46:59.505Z,416.89
2018-12-16T04:47:59.499Z,415.12
2018-12-16T04:48:59.485Z,410.88
2018-12-16T04:49:59.484Z,415.36
2018-12-16T04:50:59.494Z,415.01
2018-12-16T04:51:59.447Z,416.18
2018-12-16T04:52:59.440Z,411.65
2018-12-16T04:53:59.456Z,417.09
2018-12-16T04:54:59.428Z,417.19
2018-12-16T04:55:59.416Z,414.56
2018-12-16T04:56:59.428Z,419.03
2018-12-16T04:57:59.384Z,415.07
2018-12-16T04:58:59.401Z,413.96
2018-12-16T04:59:59.368Z,414.33
2018-12-16T05:00:59.358Z,417.61
2018-12-16T05:01:59.361Z,414.49
2018-12-16T05:02:59.335Z,408.14
2018-12-16T05:03:59.323Z,411.64
2018-12-16T05:04:59.342Z,415.46
2018-12-16T05:05:59.306Z,415.68
2018-12-16T05:06:59.287Z,412.99
2018-12-16T05:07:59.297Z,416.58
2018-12-16T05:08:59.292Z,411.78
2018-12-16T05:09:59.273Z,415.61
2018-12-16T05:10:59.238Z,415.67
2018-12-16T05:11:59.233Z,412.58
2018-12-16T05:12:59.226Z,410.74
2018-12-16T05:13:59.227Z,415.79
2018-12-16T05:14:59.243Z,418.83
2018-12-16T05:15:59.200Z,413.91
2018-12-16T05:16:59.189Z,412.93
2018-12-16T05:17:59.165Z,414.76
2018-12-16T05:18:59.201Z,415.03
2018-12-16T05:19:59.172Z,414.45
2018-12-16T05:20:59.141Z,413.37
2018-12-16T05:21:59.143Z,415.31
2018-12-16T05:22:59.129Z,416.84
2018-12-16T05:23:59.101Z,415.12
2018-12-16T05:24:59.102Z,415.33
2018-12-16T05:25:59.114Z,419.15
2018-12-16T05:26:59.078Z,416.76
2018-12-16T05:27:59.084Z,415.25
2018-12-16T05:28:59.065Z,417.90
2018-12-16T05:29:59.049Z,417.06
2018-12-16T05:30:59.038Z,412.14
2018-12-16T05:31:59.034Z,416.39
2018-12-16T05:32:59.000Z,422.34
2018-12-16T05:33:59.012Z,413.83
2018-12-16T05:34:59.003Z,414.26
2018-12-16T05:35:58.983Z,412.40
2018-12-16T05:36:58.991Z,412.15
2018-12-16T05:37:58.949Z,419.58
2018-12-16T05:38:58.959Z,419.30
2018-12-16T05:39:58.938Z,413.36
2018-12-16T05:40:58.949Z,413.74
2018-12-16T05:41:58.910Z,419.88
2018-12-16T05:42:58.915Z,411.53
2018-12-16T05:43:58.916Z,415.34
2018-12-16T05:44:58.884Z,415.90
2018-12-16T05:45:58.874Z,418.54
2018-12-16T05:46:58.868Z,423.85
2018-12-16T05:47:58.852Z,417.45
2018-12-16T05:48:58.866Z,417.29
2018-12-16T05:49:58.830Z,416.02
2018-12-16T05:50:58.816Z,418.36
2018-12-16T05:51:58.829Z,417.95
2018-12-16T05:52:58.804Z,415.87
2018-12-16T05:53:58.797Z,414.70
2018-12-16T05:54:58.782Z,421.56
2018-12-16T05:55:58.768Z,414.13
2018-12-16T05:56:58.746Z,418.40
2018-12-16T05:57:58.773Z,415.62
2018-12-16T05:58:58.745Z,418.42
2018-12-16T05:59:58.729Z,419.50
2018-12-16T06:00:58.725Z,418.59
2018-12-16T06:01:58.691Z,417.25
2018-12-16T06:02:58.696Z,416.28
2018-12-16T06:03:58.702Z,418.15
2018-12-16T06:04:58.663Z,415.35
2018-12-16T06:05:58.664Z,417.78
2018-12-16T06:06:58.659Z,415.06
2018-12-16T06:07:58.640Z,414.86
2018-12-16T06:08:58.650Z,417.99
2018-12-16T06:09:58.610Z,415.06
2018-12-16T06:10:58.606Z,412.81
2018-12-16T06:11:58.603Z,414.40
2018-12-16T06:12:58.587Z,414.32
2018-12-16T06:13:58.593Z,411.95
2018-12-16T06:14:58.556Z,416.69
2018-12-16T06:15:58.568Z,419.94
2018-12-16T06:16:58.536Z,412.68
2018-12-16T06:17:58.542Z,412.75
2018-12-16T06:18:58.542Z,415.05
2018-12-16T06:19:58.511Z,416.33
2018-12-16T06:20:58.568Z,414.99
2018-12-16T06:21:58.482Z,422.15
2018-12-16T06:22:58.470Z,416.22
2018-12-16T06:23:58.489Z,414.88
2018-12-16T06:24:58.457Z,419.94
2018-12-16T06:25:58.454Z,415.85
2018-12-16T06:26:58.455Z,412.62
2018-12-16T06:27:58.423Z,416.70
2018-12-16T06:28:58.408Z,416.32
2018-12-16T06:29:58.416Z,419.80
2018-12-16T06:30:58.423Z,414.03
2018-12-16T06:31:58.387Z,416.86
2018-12-16T06:32:58.374Z,417.71
2018-12-16T06:33:58.368Z,411.89
2018-12-16T06:34:58.349Z,415.21
2018-12-16T06:35:58.406Z,415.77
2018-12-16T06:36:58.320Z,413.83
2018-12-16T06:37:58.321Z,417.65
2018-12-16T06:38:58.313Z,415.14
2018-12-16T06:39:58.310Z,421.26
2018-12-16T06:40:58.287Z,416.38
2018-12-16T06:41:58.292Z,415.87
2018-12-16T06:42:58.250Z,413.19
2018-12-16T06:43:58.259Z,418.36
2018-12-16T06:44:58.243Z,416.20
2018-12-16T06:45:58.219Z,412.21
2018-12-16T06:46:58.246Z,417.61
2018-12-16T06:47:58.203Z,416.29
2018-12-16T06:48:58.201Z,415.92
2018-12-16T06:49:58.799Z,415.64
2018-12-16T06:50:58.174Z,411.83
2018-12-16T06:51:58.191Z,412.66
2018-12-16T06:52:58.163Z,413.82
2018-12-16T06:54:02.406Z,417.19
2018-12-16T06:54:58.127Z,417.42
2018-12-16T06:55:58.120Z,413.11
2018-12-16T06:56:58.130Z,417.06
2018-12-16T06:57:58.213Z,414.18
2018-12-16T06:58:58.102Z,417.19
2018-12-16T06:59:58.079Z,416.48
2018-12-16T07:00:58.060Z,412.10
2018-12-16T07:01:58.084Z,416.98
2018-12-16T07:02:58.093Z,418.66
2018-12-16T07:03:58.042Z,415.03
2018-12-16T07:04:58.039Z,415.00
2018-12-16T07:05:58.005Z,414.79
2018-12-16T07:06:58.001Z,415.02
2018-12-16T07:07:57.988Z,418.59
2018-12-16T07:08:57.994Z,415.35
2018-12-16T07:09:57.975Z,416.21
2018-12-16T07:10:57.973Z,416.13
2018-12-16T07:11:57.982Z,417.47
2018-12-16T07:12:57.953Z,418.15
2018-12-16T07:13:57.957Z,417.42
2018-12-16T07:14:57.917Z,418.40
2018-12-16T07:15:57.923Z,418.70
2018-12-16T07:16:57.916Z,416.35
2018-12-16T07:17:57.913Z,417.03
2018-12-16T07:18:57.891Z,416.27
2018-12-16T07:19:57.880Z,421.35
2018-12-16T07:20:57.877Z,418.63
2018-12-16T07:21:57.848Z,417.53
2018-12-16T07:22:57.873Z,418.65
2018-12-16T07:23:57.827Z,417.98
2018-12-16T07:24:57.856Z,416.29
2018-12-16T07:25:57.807Z,417.70
2018-12-16T07:26:57.780Z,418.14
2018-12-16T07:27:57.781Z,418.51
2018-12-16T07:28:57.784Z,413.93
2018-12-16T07:29:57.758Z,416.51
2018-12-16T07:30:57.839Z,411.88
2018-12-16T07:31:57.732Z,416.28
2018-12-16T07:32:57.740Z,415.94
2018-12-16T07:33:57.728Z,415.53
2018-12-16T07:34:57.719Z,411.33
2018-12-16T07:35:57.716Z,416.35
2018-12-16T07:36:57.713Z,417.72
2018-12-16T07:37:57.703Z,417.68
2018-12-16T07:38:57.657Z,417.77
2018-12-16T07:39:57.661Z,414.74
2018-12-16T07:40:57.633Z,418.48
2018-12-16T07:41:57.699Z,416.98
2018-12-16T07:42:57.636Z,419.02
2018-12-16T07:43:57.619Z,419.40
2018-12-16T07:44:57.616Z,420.38
2018-12-16T07:45:57.590Z,417.25
2018-12-16T07:46:57.611Z,420.34
2018-12-16T07:47:57.576Z,416.59
2018-12-16T07:48:57.568Z,415.15
2018-12-16T07:49:57.541Z,419.50
2018-12-16T07:50:57.534Z,416.50
2018-12-16T07:51:57.540Z,419.84
2018-12-16T07:52:57.540Z,418.74
2018-12-16T07:53:57.497Z,420.23
2018-12-16T07:54:57.509Z,421.51
2018-12-16T07:55:57.538Z,423.11
2018-12-16T07:56:57.476Z,415.71
2018-12-16T07:57:57.474Z,418.71
2018-12-16T07:58:57.443Z,418.54
2018-12-16T07:59:57.449Z,421.58
2018-12-16T08:00:57.425Z,423.20
2018-12-16T08:01:57.425Z,422.48
2018-12-16T08:02:57.478Z,420.53
2018-12-16T08:03:57.399Z,415.66
2018-12-16T08:04:57.396Z,420.79
2018-12-16T08:05:57.380Z,420.15
2018-12-16T08:06:57.369Z,418.73
2018-12-16T08:07:57.448Z,422.16
2018-12-16T08:08:57.376Z,418.11
2018-12-16T08:09:57.348Z,419.36
2018-12-16T08:10:57.322Z,424.22
2018-12-16T08:11:57.321Z,421.70
2018-12-16T08:12:57.289Z,417.29
2018-12-16T08:13:57.309Z,417.45
2018-12-16T08:14:57.280Z,421.53
2018-12-16T08:15:57.286Z,421.60
2018-12-16T08:16:57.262Z,421.73
2018-12-16T08:17:57.266Z,419.27
2018-12-16T08:18:57.252Z,423.09
2018-12-16T08:19:57.266Z,420.30
2018-12-16T08:20:57.215Z,421.21
2018-12-16T08:21:57.196Z,421.74
2018-12-16T08:22:57.191Z,424.69
2018-12-16T08:23:57.177Z,423.77
2018-12-16T08:24:57.169Z,418.93
2018-12-16T08:25:57.179Z,424.24
2018-12-16T08:26:57.157Z,421.62
2018-12-16T08:27:57.135Z,423.67
2018-12-16T08:28:57.144Z,419.75
2018-12-16T08:29:57.113Z,417.40
2018-12-16T08:30:57.117Z,423.63
2018-12-16T08:31:57.128Z,421.18
2018-12-16T08:32:57.083Z,421.63
2018-12-16T08:33:57.075Z,418.31
2018-12-16T08:34:57.079Z,423.73
2018-12-16T08:35:57.050Z,421.19
2018-12-16T08:36:57.086Z,427.18
2018-12-16T08:37:57.032Z,424.36
2018-12-16T08:38:57.032Z,423.10
2018-12-16T08:39:57.031Z,423.78
2018-12-16T08:40:57.003Z,418.29
2018-12-16T08:41:57.006Z,418.03
2018-12-16T08:42:57.008Z,422.38
2018-12-16T08:43:56.962Z,427.24
2018-12-16T08:44:56.969Z,424.12
2018-12-16T08:45:57.034Z,423.64
2018-12-16T08:46:57.020Z,420.51
2018-12-16T08:47:56.938Z,420.04
2018-12-16T08:48:56.949Z,424.26
2018-12-16T08:49:56.903Z,422.37
2018-12-16T08:50:56.891Z,424.64
2018-12-16T08:51:56.880Z,422.44
2018-12-16T08:52:56.888Z,422.81
2018-12-16T08:53:56.870Z,419.61
2018-12-16T08:54:56.847Z,422.99
2018-12-16T08:55:57.935Z,423.13
2018-12-16T08:56:56.822Z,420.54
2018-12-16T08:57:56.821Z,424.57
2018-12-16T08:58:56.866Z,420.70
2018-12-16T08:59:56.809Z,424.68
2018-12-16T09:00:56.786Z,425.74
2018-12-16T09:01:56.776Z,422.30
2018-12-16T09:02:56.781Z,420.55
2018-12-16T09:03:56.758Z,421.09
2018-12-16T09:04:56.767Z,422.33
2018-12-16T09:05:56.731Z,414.00
2018-12-16T09:06:56.735Z,421.26
2018-12-16T09:07:56.719Z,424.15
2018-12-16T09:08:56.698Z,421.78
2018-12-16T09:09:56.697Z,419.64
2018-12-16T09:10:56.713Z,422.09
2018-12-16T09:11:56.674Z,422.39
2018-12-16T09:12:56.664Z,419.26
2018-12-16T09:13:56.650Z,421.62
2018-12-16T09:14:56.636Z,425.52
2018-12-16T09:15:56.644Z,422.74
2018-12-16T09:16:56.701Z,422.06
2018-12-16T09:17:56.609Z,417.45
2018-12-16T09:18:56.604Z,426.90
2018-12-16T09:19:56.599Z,418.86
2018-12-16T09:20:56.571Z,423.17
2018-12-16T09:21:56.569Z,421.25
2018-12-16T09:22:56.567Z,420.29
2018-12-16T09:23:56.546Z,422.57
2018-12-16T09:24:56.547Z,419.55
2018-12-16T09:25:56.512Z,421.69
2018-12-16T09:26:56.500Z,421.16
2018-12-16T09:27:56.530Z,419.36
2018-12-16T09:28:56.498Z,421.35
2018-12-16T09:29:56.494Z,422.83
2018-12-16T09:30:58.163Z,423.88
2018-12-16T09:31:56.471Z,423.33
2018-12-16T09:32:56.451Z,424.75
2018-12-16T09:33:56.450Z,421.30
2018-12-16T09:34:56.412Z,423.89
2018-12-16T09:35:56.411Z,419.17
2018-12-16T09:36:56.396Z,423.46
2018-12-16T09:37:56.402Z,421.65
2018-12-16T09:38:56.415Z,421.94
2018-12-16T09:39:56.378Z,428.03
2018-12-16T09:40:56.350Z,427.88
2018-12-16T09:41:56.376Z,425.34
2018-12-16T09:42:56.356Z,419.31
2018-12-16T09:43:56.335Z,421.15
2018-12-16T09:44:56.323Z,427.15
2018-12-16T09:45:56.322Z,427.08
2018-12-16T09:46:56.285Z,417.71
2018-12-16T09:47:56.293Z,423.69
2018-12-16T09:48:56.577Z,422.84
2018-12-16T09:49:56.289Z,426.22
2018-12-16T09:50:56.260Z,428.77
2018-12-16T09:51:56.250Z,424.34
2018-12-16T09:52:56.231Z,420.07
2018-12-16T09:53:56.231Z,423.64
2018-12-16T09:54:56.222Z,421.33
2018-12-16T09:55:56.194Z,420.01
2018-12-16T09:56:56.192Z,420.32
2018-12-16T09:57:56.174Z,419.27
2018-12-16T09:58:56.176Z,422.88
2018-12-16T09:59:56.154Z,421.76
2018-12-16T10:00:56.150Z,420.66
2018-12-16T10:01:56.138Z,425.78
2018-12-16T10:02:56.132Z,423.38
2018-12-16T10:03:56.178Z,414.93
2018-12-16T10:04:56.111Z,423.01
2018-12-16T10:05:56.091Z,425.47
2018-12-16T10:06:56.085Z,424.20
2018-12-16T10:07:56.062Z,421.53
2018-12-16T10:08:56.057Z,418.09
2018-12-16T10:09:56.073Z,424.54
2018-12-16T10:10:56.040Z,425.55
2018-12-16T10:11:56.024Z,424.99
2018-12-16T10:12:56.016Z,424.44
2018-12-16T10:13:56.017Z,421.87
2018-12-16T10:14:56.043Z,418.72
2018-12-16T10:15:55.987Z,425.21
2018-12-16T10:16:55.979Z,421.97
2018-12-16T10:17:55.955Z,424.38
2018-12-16T10:18:55.943Z,424.33
2018-12-16T10:19:55.948Z,420.92
2018-12-16T10:20:55.950Z,428.23
2018-12-16T10:21:55.921Z,420.96
2018-12-16T10:22:55.928Z,426.03
2018-12-16T10:23:55.894Z,423.88
2018-12-16T10:24:55.882Z,421.88
2018-12-16T10:25:55.872Z,428.76
2018-12-16T10:26:55.881Z,425.33
2018-12-16T10:27:55.852Z,424.09
2018-12-16T10:28:55.855Z,420.27
2018-12-16T10:29:55.906Z,422.80
2018-12-16T10:30:55.814Z,423.45
2018-12-16T10:31:55.845Z,420.61
2018-12-16T10:32:55.804Z,423.75
2018-12-16T10:33:55.786Z,425.30
2018-12-16T10:34:55.777Z,425.45
2018-12-16T10:35:55.772Z,425.25
2018-12-16T10:36:55.757Z,425.51
2018-12-16T10:37:55.760Z,428.07
2018-12-16T10:38:55.746Z,427.31
2018-12-16T10:39:55.724Z,425.57
2018-12-16T10:40:55.708Z,427.31
2018-12-16T10:41:55.716Z,423.42
2018-12-16T10:42:55.699Z,422.36
2018-12-16T10:43:55.692Z,423.45
2018-12-16T10:44:55.703Z,422.86
2018-12-16T10:45:55.673Z,422.19
2018-12-16T10:46:55.652Z,426.07
2018-12-16T10:47:55.643Z,427.04
2018-12-16T10:48:55.633Z,423.57
2018-12-16T10:49:55.610Z,424.82
2018-12-16T10:50:55.642Z,425.10
2018-12-16T10:51:55.595Z,423.07
2018-12-16T10:52:55.579Z,424.11
2018-12-16T10:53:55.671Z,428.65
2018-12-16T10:54:58.545Z,423.90
2018-12-16T10:55:55.557Z,421.84
2018-12-16T10:56:55.584Z,422.75
2018-12-16T10:57:55.536Z,423.85
2018-12-16T10:58:55.516Z,424.35
2018-12-16T10:59:55.518Z,423.05
2018-12-16T11:00:55.512Z,424.57
2018-12-16T11:01:55.514Z,420.57
2018-12-16T11:02:55.493Z,423.78
2018-12-16T11:03:55.467Z,425.71
2018-12-16T11:04:55.457Z,420.35
2018-12-16T11:05:55.465Z,423.17
2018-12-16T11:06:55.473Z,424.02
2018-12-16T11:07:55.455Z,421.89
2018-12-16T11:08:55.422Z,424.45
2018-12-16T11:09:55.408Z,423.44
2018-12-16T11:10:55.390Z,425.27
2018-12-16T11:11:55.618Z,421.80
2018-12-16T11:12:55.370Z,422.43
2018-12-16T11:13:55.367Z,426.39
2018-12-16T11:14:55.358Z,423.63
2018-12-16T11:15:55.325Z,424.54
2018-12-16T11:16:55.329Z,425.15
2018-12-16T11:17:55.342Z,427.99
2018-12-16T11:18:55.306Z,426.50
2018-12-16T11:19:55.315Z,423.37
2018-12-16T11:20:55.295Z,422.58
2018-12-16T11:21:55.294Z,425.38
2018-12-16T11:22:55.285Z,425.76
2018-12-16T11:23:55.264Z,422.77
2018-12-16T11:24:55.235Z,422.62
2018-12-16T11:25:55.235Z,422.17
2018-12-16T11:26:55.225Z,424.52
2018-12-16T11:27:55.246Z,419.51
2018-12-16T11:28:55.209Z,420.16
2018-12-16T11:29:55.176Z,427.31
2018-12-16T11:30:55.179Z,423.09
2018-12-16T11:31:55.172Z,427.56
2018-12-16T11:32:55.182Z,427.06
2018-12-16T11:33:55.168Z,423.19
2018-12-16T11:34:55.142Z,424.20
2018-12-16T11:35:55.115Z,421.48
2018-12-16T11:36:55.107Z,424.90
2018-12-16T11:37:55.104Z,422.29
2018-12-16T11:38:55.107Z,424.28
2018-12-16T11:39:55.093Z,425.82
2018-12-16T11:40:55.067Z,423.72
2018-12-16T11:41:55.066Z,429.13
2018-12-16T11:42:55.045Z,425.43
2018-12-16T11:43:55.051Z,425.18
2018-12-16T11:44:55.047Z,422.87
2018-12-16T11:45:55.029Z,428.33
2018-12-16T11:46:55.036Z,426.96
2018-12-16T11:47:54.991Z,424.67
2018-12-16T11:48:55.058Z,429.02
2018-12-16T11:49:54.981Z,426.86
2018-12-16T11:50:54.979Z,426.44
2018-12-16T11:51:54.961Z,427.21
2018-12-16T11:52:54.956Z,421.68
2018-12-16T11:53:54.931Z,430.72
2018-12-16T11:54:54.962Z,423.63
2018-12-16T11:55:54.920Z,424.42
2018-12-16T11:56:54.910Z,426.40
2018-12-16T11:57:54.902Z,425.43
2018-12-16T11:58:54.906Z,427.74
2018-12-16T11:59:54.908Z,423.05
2018-12-16T12:00:54.880Z,423.83
2018-12-16T12:01:54.847Z,423.32
2018-12-16T12:02:54.857Z,430.76
2018-12-16T12:03:54.834Z,425.28
2018-12-16T12:04:54.872Z,427.34
2018-12-16T12:05:54.807Z,427.06
2018-12-16T12:06:54.786Z,422.65
2018-12-16T12:07:54.786Z,421.30
2018-12-16T12:08:54.769Z,426.48
2018-12-16T12:09:54.798Z,424.60
2018-12-16T12:10:54.766Z,425.57
2018-12-16T12:11:56.442Z,422.57
2018-12-16T12:12:54.740Z,427.08
2018-12-16T12:13:54.722Z,428.14
2018-12-16T12:14:54.744Z,419.77
2018-12-16T12:15:54.699Z,428.63
2018-12-16T12:16:54.713Z,429.30
2018-12-16T12:17:54.672Z,426.15
2018-12-16T12:18:54.672Z,422.39
2018-12-16T12:19:54.737Z,422.53
2018-12-16T12:20:54.633Z,424.39
2018-12-16T12:21:54.644Z,426.73
2018-12-16T12:22:54.628Z,421.96
2018-12-16T12:23:54.684Z,423.29
2018-12-16T12:24:54.630Z,421.87
2018-12-16T12:25:54.599Z,426.61
2018-12-16T12:26:54.587Z,421.83
2018-12-16T12:27:54.580Z,423.00